Time;durP1;ratioP1;P1;durP2;ratioP2;P2;SDS_P1;SDS_P2;PMS_P1;PMS_P2;Temp;Humidity;BMP_temperature;BMP_pressure;BME280_temperature;BME280_humidity;BME280_pressure;Samples;Min_cycle;Max_cycle;Signal;HPM_P1;HPM_P2
2021/12/12 00:01:49;;;;;;;194.82;104.15;;;;;;;20.08;37.68;101113.38;5111712;28;20039;-58
2021/12/12 00:04:18;;;;;;;101.60;91.03;;;;;;;20.02;36.96;101114.78;5111577;28;20089;-57
2021/12/12 00:06:46;;;;;;;110.93;98.43;;;;;;;20.06;36.76;101105.44;5100618;28;20051;-58
2021/12/12 00:09:20;;;;;;;75.80;68.20;;;;;;;20.04;37.76;101107.44;5111996;28;20050;-59
2021/12/12 00:11:46;;;;;;;102.30;91.75;;;;;;;20.00;38.69;101106.00;5094767;28;20161;-61
2021/12/12 00:14:16;;;;;;;166.45;106.20;;;;;;;19.91;37.27;101101.53;5091313;28;20044;-60
2021/12/12 00:16:44;;;;;;;92.10;80.25;;;;;;;20.01;37.13;101110.41;5091172;28;20042;-59
2021/12/12 00:19:10;;;;;;;142.93;107.75;;;;;;;20.03;37.99;101108.44;5091150;28;20048;-58
2021/12/12 00:21:38;;;;;;;157.52;127.20;;;;;;;19.97;37.23;101109.00;5091026;28;20089;-60
2021/12/12 00:24:06;;;;;;;182.60;77.70;;;;;;;19.94;39.13;101107.47;5092046;28;20047;-60
2021/12/12 00:26:32;;;;;;;149.93;137.85;;;;;;;20.02;38.23;101112.09;5090783;28;20407;-59
2021/12/12 00:28:58;;;;;;;87.18;70.90;;;;;;;20.00;38.50;101122.13;5073066;28;20059;-58
2021/12/12 00:31:26;;;;;;;53.40;48.10;;;;;;;20.01;39.42;101123.84;5090960;28;20055;-59
2021/12/12 00:33:54;;;;;;;96.60;61.53;;;;;;;19.96;38.38;101132.34;5107977;28;20044;-58
2021/12/12 00:36:22;;;;;;;243.85;85.00;;;;;;;19.97;39.54;101125.13;5099028;28;20044;-57
2021/12/12 00:38:57;;;;;;;175.98;109.13;;;;;;;20.03;39.82;101130.75;5091172;28;20040;-58
2021/12/12 00:41:32;;;;;;;106.95;92.32;;;;;;;20.00;39.21;101132.88;5090810;28;20039;-58
2021/12/12 00:44:00;;;;;;;53.90;47.38;;;;;;;20.00;38.95;101135.56;5090981;28;20126;-58
2021/12/12 00:46:26;;;;;;;67.72;62.25;;;;;;;20.04;38.39;101126.25;5106733;28;20075;-60
2021/12/12 00:48:53;;;;;;;105.10;77.10;;;;;;;19.97;39.68;101130.50;5092572;28;20546;-60
2021/12/12 00:51:22;;;;;;;67.07;49.55;;;;;;;19.96;36.34;101132.34;5106061;28;20044;-59
2021/12/12 00:53:48;;;;;;;93.32;81.10;;;;;;;19.94;39.66;101133.44;5092885;28;20043;-60
2021/12/12 00:56:15;;;;;;;70.32;65.10;;;;;;;19.98;38.66;101130.34;5110910;28;20054;-57
2021/12/12 00:58:41;;;;;;;89.40;69.15;;;;;;;20.00;38.55;101133.75;5110591;28;20035;-57
2021/12/12 01:01:18;;;;;;;60.90;54.78;;;;;;;19.90;39.03;101132.91;5110994;28;20035;-56
2021/12/12 01:03:53;;;;;;;102.57;92.28;;;;;;;19.97;38.25;101138.53;5110804;28;20094;-57
2021/12/12 01:06:20;;;;;;;132.10;118.55;;;;;;;19.97;37.66;101135.84;5111405;28;20040;-58
2021/12/12 01:08:47;;;;;;;82.40;75.90;;;;;;;19.93;39.21;101137.16;5111166;28;20039;-58
2021/12/12 01:11:17;;;;;;;115.60;104.53;;;;;;;19.94;38.65;101134.31;5110807;28;20040;-57
2021/12/12 01:13:45;;;;;;;70.47;37.95;;;;;;;19.98;39.49;101141.09;5092292;28;20066;-58
2021/12/12 01:16:22;;;;;;;139.30;128.10;;;;;;;19.91;37.47;101136.44;5111256;28;20118;-58
2021/12/12 01:18:54;;;;;;;57.42;50.47;;;;;;;19.82;39.30;101128.19;5110799;28;20381;-58
2021/12/12 01:21:31;;;;;;;47.63;40.00;;;;;;;19.95;39.45;101136.00;5111067;28;20126;-58
2021/12/12 01:24:04;;;;;;;72.87;59.70;;;;;;;20.03;40.14;101140.66;5111215;28;20407;-56
2021/12/12 01:26:31;;;;;;;75.88;55.53;;;;;;;20.03;38.98;101132.59;5109863;28;20047;-58
2021/12/12 01:28:58;;;;;;;84.60;75.25;;;;;;;20.07;39.14;101130.47;5111232;28;20096;-58
2021/12/12 01:31:29;;;;;;;87.45;80.82;;;;;;;20.01;40.00;101129.19;5110646;28;20039;-58
2021/12/12 01:34:08;;;;;;;93.30;71.18;;;;;;;19.94;38.39;101128.06;5111916;28;20127;-56
2021/12/12 01:37:35;;;;;;;96.68;69.97;;;;;;;19.87;38.70;101123.28;5114460;28;20130;-57
2021/12/12 01:39:43;;;;;;;76.53;67.68;;;;;;;19.88;37.90;101127.66;5106014;28;20044;-57
2021/12/12 01:42:30;;;;;;;123.88;112.03;;;;;;;19.84;38.76;101117.38;5114460;28;20067;-57
2021/12/12 01:45:00;;;;;;;31.30;28.75;;;;;;;19.72;39.70;101113.94;5094033;28;20051;-55
2021/12/12 01:47:33;;;;;;;54.42;49.60;;;;;;;19.83;39.30;101113.81;5114481;28;20143;-57
2021/12/12 01:50:02;;;;;;;87.78;54.92;;;;;;;19.83;40.32;101115.69;5114218;28;20477;-57
2021/12/12 01:52:30;;;;;;;97.85;73.78;;;;;;;19.77;38.76;101125.09;5114327;28;20047;-58
2021/12/12 01:55:40;;;;;;;97.00;75.80;;;;;;;19.73;38.45;101121.84;5114286;28;20130;-58
2021/12/12 01:58:10;;;;;;;81.85;43.20;;;;;;;19.73;39.50;101110.28;5051150;28;20053;-57
2021/12/12 02:00:44;;;;;;;70.72;64.18;;;;;;;19.75;39.84;101119.06;5050730;28;20522;-58
2021/12/12 02:03:12;;;;;;;230.80;107.57;;;;;;;19.73;38.94;101121.84;5050891;28;20047;-57
2021/12/12 02:05:38;;;;;;;132.60;116.80;;;;;;;19.67;39.45;101117.06;5050532;28;20137;-57
2021/12/12 02:08:16;;;;;;;70.18;64.35;;;;;;;19.67;40.17;101114.38;5050902;28;20062;-58
2021/12/12 02:10:51;;;;;;;91.88;81.43;;;;;;;19.70;40.41;101105.19;5050693;28;20068;-57
2021/12/12 02:13:41;;;;;;;88.53;75.65;;;;;;;19.60;41.73;101105.22;5050781;28;20072;-57
2021/12/12 02:16:07;;;;;;;101.63;91.88;;;;;;;19.67;38.80;101103.63;5050420;28;20110;-58
2021/12/12 02:18:36;;;;;;;113.85;80.05;;;;;;;19.69;40.96;101101.66;5050589;28;20095;-58
2021/12/12 02:21:26;;;;;;;109.40;96.25;;;;;;;19.79;40.00;101109.72;5050863;28;20068;-58
2021/12/12 02:37:46;;;;;;;91.30;79.45;;;;;;;19.96;40.20;101096.56;5094214;28;20472;-58
2021/12/12 02:40:23;;;;;;;201.23;133.52;;;;;;;19.87;40.69;101096.44;5092588;28;20472;-59
2021/12/12 02:42:49;;;;;;;;;;;;;;;19.80;39.32;101100.66;5102372;28;20039;-57
2021/12/12 02:45:17;;;;;;;128.07;91.57;;;;;;;19.86;40.74;101102.81;5094625;28;20022;-57
2021/12/12 02:47:45;;;;;;;148.88;126.93;;;;;;;19.84;38.97;101086.00;5113085;28;20543;-58
2021/12/12 02:50:17;;;;;;;86.22;74.43;;;;;;;19.79;40.56;101088.22;5112542;28;20051;-57
2021/12/12 02:52:48;;;;;;;202.48;128.15;;;;;;;19.72;40.22;101092.47;5112903;28;20039;-57
2021/12/12 02:55:24;;;;;;;127.32;113.38;;;;;;;19.77;39.16;101087.53;5111550;28;20522;-57
2021/12/12 02:57:58;;;;;;;112.13;96.38;;;;;;;19.87;38.74;101091.06;5112830;28;20047;-56
2021/12/12 03:00:29;;;;;;;88.47;79.95;;;;;;;19.84;40.08;101090.53;5112910;28;20047;-57
2021/12/12 03:02:57;;;;;;;61.50;54.47;;;;;;;19.91;41.57;101090.78;5112865;28;20407;-57
2021/12/12 03:05:25;;;;;;;111.15;87.18;;;;;;;19.85;40.32;101087.69;5112439;28;20468;-59
2021/12/12 03:07:51;;;;;;;157.55;72.30;;;;;;;19.85;40.25;101087.69;5112837;28;20047;-59
2021/12/12 03:10:21;;;;;;;118.70;76.78;;;;;;;19.81;39.90;101096.13;5112212;28;20039;-61
2021/12/12 03:12:47;;;;;;;127.85;93.22;;;;;;;19.82;40.38;101098.66;5112323;28;20070;-60
2021/12/12 03:15:20;;;;;;;153.57;103.22;;;;;;;19.88;40.43;101095.44;5112791;28;20484;-57
2021/12/12 03:17:48;;;;;;;112.72;98.68;;;;;;;19.87;40.73;101087.53;5112683;28;20078;-59
2021/12/12 03:20:27;;;;;;;182.27;133.70;;;;;;;19.90;38.79;101086.41;5112412;28;20047;-59
2021/12/12 03:22:56;;;;;;;114.05;95.88;;;;;;;19.84;39.52;101087.84;5112586;28;20130;-59
2021/12/12 03:25:23;;;;;;;131.55;92.15;;;;;;;19.95;40.16;101084.13;5112516;28;20035;-59
2021/12/12 03:27:51;;;;;;;160.48;146.68;;;;;;;19.92;38.06;101081.75;5112048;28;20411;-61
2021/12/12 03:30:20;;;;;;;102.57;80.57;;;;;;;19.94;40.18;101085.97;5112686;28;20107;-61
2021/12/12 03:32:46;;;;;;;182.90;126.68;;;;;;;19.87;39.48;101084.84;5112094;28;20063;-61
2021/12/12 03:35:12;;;;;;;84.38;70.22;;;;;;;19.80;38.33;101081.88;5093445;28;20385;-61
2021/12/12 03:37:40;;;;;;;145.32;100.20;;;;;;;19.79;36.78;101077.50;5111055;28;20043;-61
2021/12/12 03:40:12;;;;;;;97.32;87.60;;;;;;;19.81;39.76;101077.34;5112267;28;20170;-61
2021/12/12 03:42:38;;;;;;;171.75;111.95;;;;;;;19.84;38.75;101082.47;5111742;28;20039;-63
2021/12/12 03:45:06;;;;;;;85.60;77.05;;;;;;;19.82;39.61;101071.81;5112196;28;20190;-62
2021/12/12 03:47:33;;;;;;;;;;;;;;;19.78;40.27;101081.16;5112532;28;20048;-64
2021/12/12 03:50:03;;;;;;;113.57;97.40;;;;;;;19.78;39.31;101081.16;5112335;28;19934;-62
2021/12/12 03:52:29;;;;;;;136.38;121.68;;;;;;;19.79;40.36;101090.91;5095942;28;20036;-63
2021/12/12 03:54:59;;;;;;;83.85;55.75;;;;;;;19.77;39.67;101095.56;5092409;28;20397;-61
2021/12/12 03:57:27;;;;;;;106.15;86.05;;;;;;;19.76;39.90;101091.19;5090515;28;20511;-62
2021/12/12 03:59:53;;;;;;;158.43;118.35;;;;;;;19.81;40.39;101099.69;5073503;28;20051;-64
2021/12/12 04:02:19;;;;;;;138.65;79.43;;;;;;;19.83;40.87;101095.03;5110217;28;20408;-62
2021/12/12 04:04:46;;;;;;;105.45;95.60;;;;;;;19.77;38.35;101089.38;5109674;28;20520;-63
2021/12/12 04:07:19;;;;;;;120.53;90.75;;;;;;;19.81;40.21;101080.88;5111842;28;20043;-63
2021/12/12 04:09:45;;;;;;;142.85;110.50;;;;;;;19.75;36.77;101086.84;5111754;28;20055;-63
2021/12/12 04:12:14;;;;;;;146.35;130.40;;;;;;;19.77;39.93;101084.84;5106039;28;20508;-61
2021/12/12 04:14:40;;;;;;;58.75;53.55;;;;;;;19.76;40.59;101088.50;5099831;28;20172;-62
2021/12/12 04:17:13;;;;;;;90.57;82.43;;;;;;;19.80;39.23;101086.38;5111306;28;20423;-59
2021/12/12 04:19:44;;;;;;;81.03;72.93;;;;;;;19.78;39.19;101097.28;5111144;28;20047;-61
2021/12/12 04:22:11;;;;;;;77.93;69.82;;;;;;;19.78;37.86;101096.44;5110029;28;20060;-61
2021/12/12 04:24:40;;;;;;;98.88;88.38;;;;;;;19.75;34.88;101102.94;5111214;28;20089;-58
2021/12/12 04:27:07;;;;;;;61.15;51.28;;;;;;;19.81;35.98;101094.31;5111099;28;20465;-56
2021/12/12 04:29:39;;;;;;;80.47;58.97;;;;;;;19.82;34.51;101098.66;5111024;28;20044;-58
2021/12/12 04:32:09;;;;;;;77.20;67.15;;;;;;;19.73;34.17;101088.81;5111568;28;20043;-58
2021/12/12 04:34:38;;;;;;;85.97;62.55;;;;;;;19.74;33.89;101093.19;5106267;28;20044;-58
2021/12/12 04:37:05;;;;;;;60.13;47.83;;;;;;;19.75;33.08;101104.75;5091238;28;20051;-57
2021/12/12 04:39:34;;;;;;;47.03;38.95;;;;;;;19.77;33.01;101095.56;5090614;28;20051;-59
2021/12/12 04:42:05;;;;;;;50.40;44.92;;;;;;;19.77;32.84;101100.09;5090842;28;20044;-59
2021/12/12 04:44:35;;;;;;;43.25;37.40;;;;;;;19.79;31.79;101096.28;5093839;28;20061;-59
2021/12/12 04:50:25;;;;;;;35.72;29.27;;;;;;;19.71;30.69;101114.94;5043240;28;20053;-57
2021/12/12 04:53:02;;;;;;;31.17;26.67;;;;;;;19.72;31.93;101111.25;5048009;28;20123;-59
2021/12/12 04:55:37;;;;;;;76.30;35.17;;;;;;;19.64;30.53;101103.94;5047661;28;20053;-59
2021/12/12 04:58:11;;;;;;;75.03;49.75;;;;;;;19.66;31.36;101114.53;5039190;28;20053;-59
2021/12/12 05:00:43;;;;;;;33.45;20.85;;;;;;;19.55;30.44;101111.00;5042647;28;20052;-60
2021/12/12 05:03:27;;;;;;;48.03;37.22;;;;;;;19.51;31.21;101112.25;5022727;28;20041;-57
2021/12/12 05:05:56;;;;;;;61.00;33.78;;;;;;;19.53;30.63;101121.03;5031349;28;20037;-58
2021/12/12 05:08:44;;;;;;;30.40;24.80;;;;;;;19.50;29.70;101115.09;5039106;28;20645;-57
2021/12/12 05:11:34;;;;;;;55.65;34.08;;;;;;;19.51;30.28;101120.31;5012378;28;20049;-57
2021/12/12 05:14:21;;;;;;;30.23;27.38;;;;;;;19.45;29.23;101123.59;5044946;28;20084;-57
2021/12/12 05:16:52;;;;;;;31.58;28.58;;;;;;;19.51;30.30;101119.47;5051984;28;20565;-57
2021/12/12 05:19:22;;;;;;;46.70;39.78;;;;;;;19.55;29.97;101124.41;5048614;28;20127;-59
2021/12/12 05:21:50;;;;;;;42.88;30.02;;;;;;;19.54;29.93;101121.88;5015786;28;20099;-58
2021/12/12 05:24:19;;;;;;;40.72;24.15;;;;;;;19.58;29.85;101131.34;5032031;28;20053;-59
2021/12/12 05:27:02;;;;;;;22.17;18.25;;;;;;;19.48;28.13;101119.75;5059434;28;20060;-59
2021/12/12 05:29:34;;;;;;;18.83;15.57;;;;;;;19.55;28.18;101134.28;5078861;28;20047;-59
2021/12/12 05:32:03;;;;;;;11.25;10.32;;;;;;;19.52;28.41;101124.69;5084326;28;20131;-59
2021/12/12 05:34:30;;;;;;;24.17;18.83;;;;;;;19.56;28.41;101120.75;5096697;28;20416;-59
2021/12/12 05:36:57;;;;;;;32.40;25.70;;;;;;;19.66;28.21;101126.09;5115105;28;20506;-60
2021/12/12 05:39:25;;;;;;;24.13;21.83;;;;;;;19.52;29.00;101123.84;5097036;28;20046;-56
2021/12/12 05:41:53;;;;;;;27.67;25.35;;;;;;;19.53;29.02;101126.38;5114766;28;20042;-56
2021/12/12 05:44:19;;;;;;;27.73;16.30;;;;;;;19.52;28.77;101132.72;5114404;28;20500;-58
2021/12/12 05:46:44;;;;;;;21.85;16.15;;;;;;;19.52;28.58;101124.69;5096464;28;20048;-60
2021/12/12 05:49:11;;;;;;;18.92;16.95;;;;;;;19.53;27.33;101128.25;5096855;28;20051;-60
2021/12/12 05:51:37;;;;;;;43.17;13.90;;;;;;;19.49;27.19;101129.47;5096594;28;20046;-59
2021/12/12 05:54:04;;;;;;;21.15;18.92;;;;;;;19.45;28.96;101126.25;5114470;28;20043;-60
2021/12/12 05:56:32;;;;;;;6.75;6.18;;;;;;;19.56;28.49;101126.13;5108177;28;20074;-59
2021/12/12 05:58:59;;;;;;;34.05;28.85;;;;;;;19.56;26.68;101131.50;5113296;28;20039;-62
2021/12/12 06:01:26;;;;;;;14.10;9.88;;;;;;;19.56;27.26;101131.50;5113550;28;20084;-59
2021/12/12 06:03:53;;;;;;;13.93;9.18;;;;;;;19.59;28.27;101134.84;5106453;28;20039;-56
2021/12/12 06:06:24;;;;;;;14.60;12.60;;;;;;;19.56;27.50;101128.81;5094152;28;20040;-58
2021/12/12 06:08:50;;;;;;;20.20;14.52;;;;;;;19.62;27.63;101145.31;5110315;28;20655;-58
2021/12/12 06:11:21;;;;;;;6.65;6.28;;;;;;;19.63;26.64;101145.19;5095231;28;20035;-60
2021/12/12 06:13:47;;;;;;;16.08;11.65;;;;;;;19.55;27.61;101139.66;5113466;28;20508;-58
2021/12/12 06:16:19;;;;;;;19.90;10.65;;;;;;;19.54;28.30;101128.09;5113925;28;20045;-59
2021/12/12 06:19:03;;;;;;;21.02;19.15;;;;;;;19.59;27.59;101129.50;5092808;28;20048;-59
2021/12/12 06:21:29;;;;;;;12.75;11.60;;;;;;;19.52;27.97;101124.69;5098867;28;20040;-59
2021/12/12 06:23:55;;;;;;;7.28;6.68;;;;;;;19.55;27.71;101126.25;5093426;28;20040;-59
2021/12/12 06:26:21;;;;;;;3.97;3.67;;;;;;;19.56;27.85;101130.63;5084121;28;20385;-59
2021/12/12 06:28:48;;;;;;;34.05;24.45;;;;;;;19.59;28.21;101130.34;5111307;28;20043;-60
2021/12/12 06:31:14;;;;;;;58.23;17.07;;;;;;;19.64;28.22;101116.50;5112519;28;20039;-60
2021/12/12 06:33:41;;;;;;;8.73;8.00;;;;;;;19.61;28.61;101127.53;5090559;28;20395;-61
2021/12/12 06:36:08;;;;;;;2.13;2.00;;;;;;;19.58;27.26;101127.78;5111877;28;20048;-58
2021/12/12 06:38:36;;;;;;;8.00;7.32;;;;;;;19.64;28.02;101127.22;5112447;28;20051;-59
2021/12/12 06:41:02;;;;;;;6.32;5.78;;;;;;;19.67;27.73;101130.47;5093102;28;20039;-60
2021/12/12 06:43:28;;;;;;;2.47;2.38;;;;;;;19.60;28.00;101133.88;5112951;28;20063;-60
2021/12/12 06:45:54;;;;;;;6.28;5.82;;;;;;;19.61;27.12;101127.53;5110681;28;20035;-60
2021/12/12 06:48:21;;;;;;;19.35;9.57;;;;;;;19.91;28.80;101131.06;5104286;28;20042;-59
2021/12/12 06:50:49;;;;;;;9.20;4.20;;;;;;;20.33;27.16;101139.59;5108969;28;20071;-59
2021/12/12 06:53:19;;;;;;;18.98;10.20;;;;;;;20.59;27.65;101130.03;5111636;28;20066;-60
2021/12/12 06:55:46;;;;;;;13.02;9.75;;;;;;;20.75;27.30;101126.72;5108951;28;20035;-60
2021/12/12 06:58:13;;;;;;;5.65;4.13;;;;;;;20.83;27.05;101127.66;5108032;28;20091;-60
2021/12/12 07:00:41;;;;;;;13.68;5.53;;;;;;;20.89;26.74;101128.91;5109113;28;20040;-60
2021/12/12 07:03:07;;;;;;;6.88;6.28;;;;;;;20.98;27.34;101137.94;5107681;28;20456;-61
2021/12/12 07:05:33;;;;;;;21.20;13.25;;;;;;;21.05;28.40;101125.56;5101251;28;20435;-60
2021/12/12 07:08:00;;;;;;;6.78;6.15;;;;;;;21.06;27.82;101124.56;5091997;28;20041;-57
2021/12/12 07:10:27;;;;;;;20.33;6.28;;;;;;;21.02;26.93;101123.16;5108869;28;20383;-57
2021/12/12 07:12:56;;;;;;;5.45;3.15;;;;;;;20.91;28.66;101129.63;5109310;28;20044;-54
2021/12/12 07:15:26;;;;;;;7.22;6.50;;;;;;;20.86;27.02;101137.31;5107883;28;20488;-57
2021/12/12 07:17:55;;;;;;;8.02;7.20;;;;;;;20.88;28.07;101143.34;5106147;28;20101;-57
2021/12/12 07:20:21;;;;;;;36.05;17.98;;;;;;;20.88;27.44;101131.75;5108835;28;20043;-63
2021/12/12 07:22:47;;;;;;;4.15;3.85;;;;;;;20.87;27.04;101124.69;5107983;28;20039;-57
2021/12/12 07:25:14;;;;;;;12.20;4.97;;;;;;;20.87;27.04;101117.44;5092760;28;20036;-57
2021/12/12 07:27:40;;;;;;;13.48;5.72;;;;;;;20.81;28.07;101115.34;5112032;28;20353;-61
2021/12/12 07:30:08;;;;;;;3.22;2.90;;;;;;;20.89;27.53;101117.31;5112047;28;20035;-60
2021/12/12 07:32:37;;;;;;;10.95;6.82;;;;;;;20.98;26.07;101113.72;5111473;28;20047;-56
2021/12/12 07:35:07;;;;;;;12.63;10.25;;;;;;;20.99;26.64;101123.47;5094122;28;20076;-59
2021/12/12 07:37:33;;;;;;;2.80;1.45;;;;;;;20.97;26.81;101115.56;5108303;28;20032;-60
2021/12/12 07:39:59;;;;;;;3.63;3.30;;;;;;;21.02;27.85;101112.41;5104360;28;20495;-57
2021/12/12 07:42:24;;;;;;;4.18;3.80;;;;;;;21.02;26.89;101107.03;5111924;28;20043;-58
2021/12/12 07:44:50;;;;;;;8.60;6.65;;;;;;;21.00;26.71;101119.81;5112040;28;20051;-58
2021/12/12 07:47:17;;;;;;;14.30;8.98;;;;;;;20.93;25.50;101114.16;5095367;28;20039;-58
2021/12/12 07:49:48;;;;;;;13.43;9.57;;;;;;;21.03;26.89;101113.28;5105085;28;20587;-59
2021/12/12 07:52:18;;;;;;;7.88;5.88;;;;;;;20.98;25.22;101109.16;5109444;28;20080;-58
2021/12/12 07:54:47;;;;;;;19.77;6.25;;;;;;;20.99;26.41;101113.56;5111152;28;20089;-59
2021/12/12 07:57:13;;;;;;;5.72;4.97;;;;;;;21.02;25.99;101107.03;5111848;28;20050;-60
2021/12/12 07:59:40;;;;;;;6.32;2.38;;;;;;;21.03;27.27;101110.56;5100846;28;20059;-62
2021/12/12 08:02:10;;;;;;;3.50;1.77;;;;;;;20.94;26.63;101098.88;5110027;28;20047;-57
2021/12/12 08:04:36;;;;;;;5.30;4.95;;;;;;;21.02;26.56;101101.66;5098639;28;20560;-57
2021/12/12 08:07:03;;;;;;;1.30;1.23;;;;;;;21.04;26.00;101105.03;5093114;28;20035;-55
2021/12/12 08:09:30;;;;;;;2.72;1.88;;;;;;;21.22;26.06;101113.16;5074264;28;20441;-56
2021/12/12 08:11:56;;;;;;;9.45;7.05;;;;;;;21.22;26.26;101120.34;5111255;28;20134;-58
2021/12/12 08:14:27;;;;;;;3.58;3.30;;;;;;;21.27;25.90;101109.97;5110469;28;20404;-59
2021/12/12 08:16:54;;;;;;;5.22;4.75;;;;;;;21.16;26.56;101114.59;5068911;28;20044;-57
2021/12/12 08:19:22;;;;;;;1.25;1.25;;;;;;;21.27;26.17;101104.59;5091589;28;20473;-63
2021/12/12 08:21:48;;;;;;;20.13;5.03;;;;;;;21.33;26.10;101110.22;5093730;28;20047;-54
2021/12/12 08:24:15;;;;;;;25.45;13.07;;;;;;;21.28;26.55;101119.75;5093048;28;20059;-58
2021/12/12 08:26:44;;;;;;;4.00;3.67;;;;;;;21.34;26.43;101113.75;5091341;28;20112;-58
2021/12/12 08:29:11;;;;;;;3.35;3.05;;;;;;;21.38;25.02;101109.75;5108577;28;20453;-60
2021/12/12 08:31:38;;;;;;;12.07;4.53;;;;;;;21.44;26.88;101102.91;5109355;28;20027;-59
2021/12/12 08:34:07;;;;;;;3.60;2.88;;;;;;;21.37;26.30;101094.63;5105569;28;20043;-59
2021/12/12 08:36:38;;;;;;;6.57;5.90;;;;;;;21.32;25.79;101076.22;5110326;28;20275;-61
2021/12/12 08:39:06;;;;;;;5.28;4.22;;;;;;;21.31;27.16;101074.53;5109854;28;20467;-53
2021/12/12 08:41:32;;;;;;;3.33;3.03;;;;;;;21.33;26.65;101077.06;5110067;28;20092;-60
2021/12/12 08:43:58;;;;;;;10.70;5.47;;;;;;;21.37;27.06;101091.06;5110252;28;20361;-59
2021/12/12 08:46:25;;;;;;;2.60;2.50;;;;;;;21.35;26.15;101080.47;5111015;28;20036;-58
2021/12/12 08:48:52;;;;;;;3.97;1.45;;;;;;;21.43;25.60;101068.91;5110501;28;20031;-58
2021/12/12 08:51:29;;;;;;;6.05;3.97;;;;;;;21.50;26.05;101078.91;5109933;28;20055;-58
2021/12/12 08:53:56;;;;;;;8.98;6.18;;;;;;;21.45;26.95;101093.84;5103791;28;20051;-60
2021/12/12 08:56:41;;;;;;;6.63;5.97;;;;;;;21.46;25.90;101092.84;5095386;28;20046;-59
2021/12/12 08:59:08;;;;;;;3.92;3.67;;;;;;;21.40;25.77;101097.00;5095460;28;20519;-57
2021/12/12 09:01:38;;;;;;;8.35;3.38;;;;;;;21.37;26.69;101105.38;5092512;28;20040;-60
2021/12/12 09:04:04;;;;;;;6.05;5.45;;;;;;;21.43;28.07;101104.78;5109375;28;20058;-58
2021/12/12 09:06:34;;;;;;;6.93;3.95;;;;;;;21.46;27.22;101087.47;5091201;28;20134;-57
2021/12/12 09:09:08;;;;;;;5.00;4.63;;;;;;;21.37;28.24;101088.38;5106725;28;20063;-59
2021/12/12 09:11:44;;;;;;;11.77;6.15;;;;;;;21.42;28.39;101078.84;5103295;28;20544;-59
2021/12/12 09:14:21;;;;;;;5.55;2.85;;;;;;;21.48;28.20;101086.31;5087383;28;20424;-59
2021/12/12 09:16:55;;;;;;;3.67;3.28;;;;;;;21.49;27.94;101101.44;5100792;28;20042;-59
2021/12/12 09:19:37;;;;;;;11.00;6.20;;;;;;;21.46;29.52;101099.06;5082909;28;20123;-57
2021/12/12 09:22:25;;;;;;;14.27;11.77;;;;;;;21.46;28.40;101082.91;5102519;28;20036;-59
2021/12/12 09:24:59;;;;;;;0.10;0.10;;;;;;;21.58;30.32;101102.41;5103475;28;20047;-59
2021/12/12 09:27:31;;;;;;;21.15;10.73;;;;;;;21.69;29.12;101103.16;5081164;28;20047;-60
2021/12/12 09:30:05;;;;;;;3.50;3.30;;;;;;;21.70;29.85;101089.53;5079478;28;20117;-58
2021/12/12 09:32:39;;;;;;;4.50;4.20;;;;;;;21.66;30.50;101080.09;5100137;28;20453;-60
2021/12/12 09:35:19;;;;;;;11.73;10.70;;;;;;;21.75;29.11;101094.44;5081431;28;20487;-62
2021/12/12 09:37:49;;;;;;;2.83;2.63;;;;;;;21.73;30.10;101094.63;5099419;28;20071;-57
2021/12/12 09:40:39;;;;;;;0.10;0.10;;;;;;;21.78;29.11;101086.91;5063440;28;20044;-59
2021/12/12 09:43:25;;;;;;;0.70;0.70;;;;;;;21.83;29.78;101082.88;5100365;28;20480;-58
